Time;durP1;ratioP1;P1;durP2;ratioP2;P2;SDS_P1;SDS_P2;PMS_P1;PMS_P2;Temp;Humidity;BMP_temperature;BMP_pressure;BME280_temperature;BME280_humidity;BME280_pressure;Samples;Min_cycle;Max_cycle;Signal;HPM_P1;HPM_P2
2022/11/22 00:00:07;;;;;;;5.53;1.50;;;9.00;99.90;;;;;;5024971;28;20056;-84
2022/11/22 00:02:33;;;;;;;4.70;1.00;;;9.00;99.90;;;;;;5036974;28;20082;-85
2022/11/22 00:04:59;;;;;;;2.73;1.00;;;9.00;99.90;;;;;;5018293;28;20029;-88
2022/11/22 00:07:25;;;;;;;4.97;1.00;;;9.00;99.90;;;;;;5000449;28;20238;-85
2022/11/22 00:09:51;;;;;;;2.80;1.17;;;9.00;99.90;;;;;;5023163;28;20025;-86
2022/11/22 00:12:16;;;;;;;8.20;1.50;;;9.00;99.90;;;;;;5030300;28;20498;-88
2022/11/22 00:14:42;;;;;;;5.10;1.30;;;9.00;99.90;;;;;;5016314;28;20257;-84
2022/11/22 00:17:08;;;;;;;4.90;1.47;;;9.00;99.90;;;;;;5015312;28;20275;-85
2022/11/22 00:19:34;;;;;;;4.00;1.35;;;9.00;99.90;;;;;;5006008;28;20029;-87
2022/11/22 00:22:01;;;;;;;6.35;1.48;;;9.00;99.90;;;;;;5006058;28;20025;-87
2022/11/22 00:24:26;;;;;;;5.63;1.33;;;9.00;99.90;;;;;;5030024;28;20269;-86
2022/11/22 00:26:52;;;;;;;5.57;1.30;;;9.00;99.90;;;;;;5000310;28;20115;-84
2022/11/22 00:29:18;;;;;;;5.73;1.33;;;9.00;99.90;;;;;;5019371;28;20028;-84
2022/11/22 00:31:43;;;;;;;6.15;1.40;;;9.00;99.90;;;;;;5042273;28;20418;-86
2022/11/22 00:34:09;;;;;;;5.53;1.60;;;9.00;99.90;;;;;;5017662;28;20098;-85
2022/11/22 00:36:34;;;;;;;6.23;1.67;;;9.00;99.90;;;;;;5018976;28;20021;-84
2022/11/22 00:39:00;;;;;;;6.63;1.55;;;9.00;99.90;;;;;;5007683;28;20505;-85
2022/11/22 00:41:26;;;;;;;5.07;1.30;;;9.00;99.90;;;;;;5018375;28;20125;-85
2022/11/22 00:43:52;;;;;;;4.22;1.17;;;8.90;99.90;;;;;;5027825;28;20608;-88
2022/11/22 00:46:17;;;;;;;5.07;1.40;;;8.90;99.90;;;;;;5012471;28;20662;-87
2022/11/22 00:48:43;;;;;;;4.67;1.13;;;8.90;99.90;;;;;;5006866;28;20025;-88
2022/11/22 00:51:09;;;;;;;4.35;1.10;;;8.90;99.90;;;;;;5000500;28;20029;-85
2022/11/22 00:53:34;;;;;;;8.87;1.73;;;8.90;99.90;;;;;;5024363;28;20018;-86
2022/11/22 00:56:00;;;;;;;4.27;1.63;;;8.90;99.90;;;;;;5008777;28;20493;-86
2022/11/22 00:58:25;;;;;;;3.15;1.15;;;8.90;99.90;;;;;;5024984;28;20060;-87
2022/11/22 01:00:51;;;;;;;5.33;1.30;;;8.90;99.90;;;;;;5031905;28;20373;-84
2022/11/22 01:03:17;;;;;;;4.85;1.73;;;8.90;99.90;;;;;;5028547;28;20029;-85
2022/11/22 01:05:42;;;;;;;6.33;1.60;;;8.90;99.90;;;;;;5021873;28;20439;-87
2022/11/22 01:08:08;;;;;;;8.70;1.90;;;8.80;99.90;;;;;;5035418;28;20517;-89
2022/11/22 01:10:35;;;;;;;6.15;1.50;;;8.80;99.90;;;;;;5019275;28;20028;-88
2022/11/22 01:13:01;;;;;;;5.68;1.55;;;8.80;99.90;;;;;;5024527;28;20657;-88
2022/11/22 01:15:28;;;;;;;5.55;1.10;;;8.80;99.90;;;;;;5020006;28;20017;-89
2022/11/22 01:17:54;;;;;;;3.65;1.20;;;8.80;99.90;;;;;;5025637;28;20409;-89
2022/11/22 01:20:19;;;;;;;4.33;1.00;;;8.80;99.90;;;;;;5004642;28;20022;-85
2022/11/22 01:22:45;;;;;;;4.77;0.93;;;8.80;99.90;;;;;;4990757;28;20029;-86
2022/11/22 01:25:11;;;;;;;4.75;1.42;;;8.80;99.90;;;;;;5026078;28;20052;-87
2022/11/22 01:27:36;;;;;;;5.37;1.13;;;8.70;99.90;;;;;;5029699;28;20056;-88
2022/11/22 01:30:03;;;;;;;6.03;1.40;;;8.70;99.90;;;;;;5053648;28;20036;-88
2022/11/22 01:32:28;;;;;;;6.87;1.60;;;8.70;99.90;;;;;;5014104;28;20119;-88
2022/11/22 01:34:54;;;;;;;3.60;1.00;;;8.70;99.90;;;;;;5005177;28;20358;-88
2022/11/22 01:37:20;;;;;;;6.43;1.40;;;8.70;99.90;;;;;;5002437;28;20273;-85
2022/11/22 01:39:45;;;;;;;3.22;0.93;;;8.70;99.90;;;;;;5012832;28;20533;-85
2022/11/22 01:42:11;;;;;;;7.13;1.20;;;8.70;99.90;;;;;;5059184;28;20396;-89
2022/11/22 01:44:41;;;;;;;4.20;1.27;;;8.70;99.90;;;;;;5010914;28;20373;-89
2022/11/22 01:47:18;;;;;;;4.78;1.20;;;8.60;99.90;;;;;;5039279;28;20048;-87
2022/11/22 01:50:03;;;;;;;4.40;1.15;;;8.70;99.90;;;;;;5022225;28;20032;-85
2022/11/22 01:52:33;;;;;;;6.47;1.00;;;8.60;99.90;;;;;;5052194;28;20021;-84
2022/11/22 01:55:11;;;;;;;5.03;1.08;;;8.60;99.90;;;;;;4990240;28;20426;-87
2022/11/22 01:57:39;;;;;;;3.60;0.80;;;8.60;99.90;;;;;;5015136;28;20036;-88
2022/11/22 02:00:09;;;;;;;5.80;1.00;;;8.60;99.90;;;;;;5037423;28;20720;-87
2022/11/22 02:02:36;;;;;;;3.13;0.80;;;8.50;99.90;;;;;;5019988;28;20036;-88
2022/11/22 02:05:05;;;;;;;3.42;1.10;;;8.50;99.90;;;;;;5022023;28;20918;-87
2022/11/22 02:07:40;;;;;;;4.65;1.00;;;8.50;99.90;;;;;;5019753;28;20018;-88
2022/11/22 02:10:07;;;;;;;5.37;1.10;;;8.50;99.90;;;;;;4994477;28;20381;-83
2022/11/22 02:12:34;;;;;;;6.20;1.10;;;8.50;99.90;;;;;;5027635;28;20120;-86
2022/11/22 02:15:01;;;;;;;4.35;0.88;;;8.40;99.90;;;;;;5021736;28;20238;-87
2022/11/22 02:17:27;;;;;;;2.25;0.80;;;8.40;99.90;;;;;;5013736;28;20017;-86
2022/11/22 02:19:54;;;;;;;4.80;1.07;;;8.40;99.90;;;;;;5025585;28;20135;-88
2022/11/22 02:22:48;;;;;;;5.82;1.08;;;8.40;99.90;;;;;;5050998;28;20028;-86
2022/11/22 02:25:14;;;;;;;5.63;0.80;;;8.40;99.90;;;;;;5029993;28;20033;-88
2022/11/22 02:27:40;;;;;;;4.20;0.70;;;8.40;99.90;;;;;;5011879;28;20028;-87
2022/11/22 02:30:06;;;;;;;4.75;0.80;;;8.40;99.90;;;;;;5020613;28;20606;-85
2022/11/22 02:32:32;;;;;;;2.30;0.65;;;8.30;99.90;;;;;;5014702;28;20156;-85
2022/11/22 02:34:57;;;;;;;2.20;0.80;;;8.30;99.90;;;;;;5031240;28;20108;-86
2022/11/22 02:37:26;;;;;;;3.65;0.95;;;8.30;99.90;;;;;;5032840;28;20053;-86
2022/11/22 02:40:07;;;;;;;3.27;1.10;;;8.30;99.90;;;;;;5021202;28;20635;-86
2022/11/22 02:42:34;;;;;;;4.50;0.95;;;8.30;99.90;;;;;;5008457;28;20389;-86
2022/11/22 02:45:00;;;;;;;5.28;0.90;;;8.20;99.90;;;;;;5019330;28;20499;-85
2022/11/22 02:47:25;;;;;;;2.00;0.60;;;8.20;99.90;;;;;;5043096;28;20277;-86
2022/11/22 02:49:52;;;;;;;2.27;0.60;;;8.20;99.90;;;;;;5022921;28;20086;-86
2022/11/22 02:52:18;;;;;;;4.22;0.82;;;8.10;99.90;;;;;;5034816;28;20033;-86
2022/11/22 02:54:44;;;;;;;3.10;0.70;;;8.10;99.90;;;;;;5030349;28;20041;-85
2022/11/22 02:57:10;;;;;;;2.77;0.67;;;8.10;99.90;;;;;;5003594;28;20679;-84
2022/11/22 02:59:36;;;;;;;1.88;0.52;;;8.00;99.90;;;;;;5042960;28;20108;-84
2022/11/22 03:02:02;;;;;;;2.95;0.57;;;8.00;99.90;;;;;;5006993;28;20081;-84
2022/11/22 03:04:28;;;;;;;3.00;0.63;;;8.00;99.90;;;;;;5007805;28;20099;-83
2022/11/22 03:06:56;;;;;;;2.28;0.60;;;8.00;99.90;;;;;;5028706;28;20187;-84
2022/11/22 03:09:26;;;;;;;3.97;0.70;;;7.90;99.90;;;;;;5012750;28;20228;-86
2022/11/22 03:11:52;;;;;;;4.57;1.02;;;7.90;99.90;;;;;;5031480;28;20009;-86
2022/11/22 03:14:18;;;;;;;2.90;0.83;;;7.90;99.90;;;;;;5020844;28;20028;-86
2022/11/22 03:16:46;;;;;;;2.90;0.98;;;7.90;99.90;;;;;;5013751;28;20604;-85
2022/11/22 03:19:12;;;;;;;2.35;0.70;;;7.80;99.90;;;;;;5029402;28;20370;-85
2022/11/22 03:21:39;;;;;;;3.92;0.60;;;7.80;99.90;;;;;;5030360;28;20037;-85
2022/11/22 03:24:05;;;;;;;2.85;0.60;;;7.80;99.90;;;;;;5026315;28;20017;-83
2022/11/22 03:26:31;;;;;;;5.40;0.73;;;7.80;99.90;;;;;;5041726;28;20071;-85
2022/11/22 03:28:57;;;;;;;2.70;0.70;;;7.70;99.90;;;;;;5009200;28;20029;-84
2022/11/22 03:31:23;;;;;;;1.03;0.50;;;7.70;99.90;;;;;;5022084;28;20241;-85
2022/11/22 03:33:48;;;;;;;2.92;0.82;;;7.70;99.90;;;;;;5023727;28;20060;-86
2022/11/22 03:36:14;;;;;;;2.57;0.60;;;7.70;99.90;;;;;;5023367;28;20262;-84
2022/11/22 03:38:40;;;;;;;3.13;0.77;;;7.60;99.90;;;;;;5014820;28;20048;-86
2022/11/22 03:41:05;;;;;;;2.50;0.70;;;7.60;99.90;;;;;;5023688;28;20025;-85
2022/11/22 03:43:31;;;;;;;2.38;0.65;;;7.60;99.90;;;;;;5025947;28;20021;-87
2022/11/22 03:45:56;;;;;;;3.90;1.00;;;7.60;99.90;;;;;;5020942;28;20461;-86
2022/11/22 03:48:22;;;;;;;2.80;0.70;;;7.60;99.90;;;;;;5033199;28;20072;-85
2022/11/22 03:50:48;;;;;;;3.23;0.70;;;7.50;99.90;;;;;;5036657;28;20496;-86
2022/11/22 03:53:14;;;;;;;3.67;0.83;;;7.50;99.90;;;;;;5011981;28;20059;-86
2022/11/22 03:55:39;;;;;;;2.85;0.75;;;7.50;99.90;;;;;;5010204;28;20076;-86
2022/11/22 03:58:05;;;;;;;4.47;0.90;;;7.50;99.90;;;;;;5060616;28;20017;-85
2022/11/22 04:00:32;;;;;;;3.92;0.80;;;7.50;99.90;;;;;;5011933;28;20116;-86
2022/11/22 04:02:58;;;;;;;3.08;0.80;;;7.40;99.90;;;;;;5022585;28;20027;-85
2022/11/22 04:05:24;;;;;;;1.70;0.70;;;7.40;99.90;;;;;;5048772;28;20688;-85
2022/11/22 04:07:54;;;;;;;2.00;0.80;;;7.40;99.90;;;;;;5032712;28;20524;-86
2022/11/22 04:10:21;;;;;;;2.70;0.90;;;7.40;99.90;;;;;;5062319;28;20028;-84
2022/11/22 04:12:47;;;;;;;3.47;0.80;;;7.40;99.90;;;;;;5013175;28;20044;-84
2022/11/22 04:15:12;;;;;;;1.88;0.60;;;7.40;99.90;;;;;;5028206;28;20665;-84
2022/11/22 04:17:40;;;;;;;2.17;0.63;;;7.40;99.90;;;;;;4993661;28;20462;-85
2022/11/22 04:23:02;;;;;;;3.08;0.70;;;7.40;99.90;;;;;;5028615;28;20033;-85
2022/11/22 04:25:29;;;;;;;3.37;1.10;;;7.40;99.90;;;;;;5024829;28;20029;-89
2022/11/22 04:27:56;;;;;;;2.42;0.80;;;7.30;99.90;;;;;;5023619;28;20021;-85
2022/11/22 04:33:12;;;;;;;4.85;0.90;;;7.30;99.90;;;;;;4981522;28;20045;-85
2022/11/22 04:35:38;;;;;;;3.85;0.80;;;7.30;99.90;;;;;;5026138;28;20053;-85
2022/11/22 04:38:04;;;;;;;2.23;0.63;;;7.30;99.90;;;;;;5028342;28;20437;-85
2022/11/22 04:40:30;;;;;;;4.15;0.73;;;7.30;99.90;;;;;;5040761;28;20276;-85
2022/11/22 04:45:41;;;;;;;2.92;0.60;;;7.30;99.90;;;;;;5030191;28;20098;-85
2022/11/22 04:48:06;;;;;;;1.17;0.60;;;7.30;99.90;;;;;;5039546;28;20021;-84
2022/11/22 04:53:18;;;;;;;1.50;0.70;;;7.20;99.90;;;;;;5056243;28;20105;-84
2022/11/22 04:55:45;;;;;;;2.30;0.70;;;7.20;99.90;;;;;;5035410;28;20428;-86
2022/11/22 04:58:11;;;;;;;2.03;0.70;;;7.20;99.90;;;;;;5015807;28;20048;-86
2022/11/22 05:00:37;;;;;;;1.45;0.60;;;7.20;99.90;;;;;;5016946;28;20033;-84
2022/11/22 05:03:04;;;;;;;1.77;0.70;;;7.10;99.90;;;;;;5020264;28;20022;-85
2022/11/22 05:05:29;;;;;;;1.63;0.60;;;7.20;99.90;;;;;;5025025;28;20625;-86
2022/11/22 05:07:57;;;;;;;1.70;0.60;;;7.20;99.90;;;;;;5039324;28;20025;-85
2022/11/22 05:10:23;;;;;;;1.50;0.63;;;7.20;99.90;;;;;;5022623;28;20729;-85
2022/11/22 05:12:49;;;;;;;2.57;0.77;;;7.20;99.90;;;;;;5013242;28;20021;-84
2022/11/22 05:15:15;;;;;;;1.33;0.47;;;7.30;99.90;;;;;;5017687;28;20013;-86
2022/11/22 05:17:40;;;;;;;2.90;1.03;;;7.30;99.90;;;;;;5045137;28;20034;-84
2022/11/22 05:20:07;;;;;;;3.93;0.90;;;7.30;99.90;;;;;;5007155;28;20319;-85
2022/11/22 05:25:18;;;;;;;2.88;0.90;;;7.40;99.90;;;;;;5027736;28;20498;-88
2022/11/22 05:27:44;;;;;;;2.47;1.00;;;7.40;99.90;;;;;;5031841;28;20028;-84
2022/11/22 05:30:09;;;;;;;2.60;0.60;;;7.40;99.90;;;;;;5010453;28;20048;-86
2022/11/22 05:32:35;;;;;;;2.43;0.70;;;7.40;99.90;;;;;;5025855;28;20482;-86
2022/11/22 05:35:01;;;;;;;2.80;0.70;;;7.40;99.90;;;;;;5036478;28;20053;-86
2022/11/22 05:37:27;;;;;;;2.93;0.90;;;7.40;99.90;;;;;;5006225;28;20355;-83
2022/11/22 05:39:52;;;;;;;2.23;0.70;;;7.30;99.90;;;;;;5026039;28;20285;-86
2022/11/22 05:42:18;;;;;;;3.67;0.60;;;7.30;99.90;;;;;;5022086;28;20741;-85
2022/11/22 05:44:44;;;;;;;1.35;0.70;;;7.30;99.90;;;;;;5021139;28;20085;-86
2022/11/22 05:47:10;;;;;;;2.95;0.70;;;7.30;99.90;;;;;;5019478;28;20157;-85
2022/11/22 05:49:36;;;;;;;3.17;1.00;;;7.30;99.90;;;;;;5009980;28;20033;-86
2022/11/22 05:52:02;;;;;;;2.05;0.70;;;7.30;99.90;;;;;;5025574;28;20028;-85
2022/11/22 05:54:29;;;;;;;3.50;0.98;;;7.30;99.90;;;;;;5011656;28;20040;-85
2022/11/22 05:56:55;;;;;;;1.63;0.80;;;7.40;99.90;;;;;;5011827;28;20025;-86
2022/11/22 05:59:20;;;;;;;1.67;0.90;;;7.30;99.90;;;;;;5000661;28;20021;-86
2022/11/22 06:01:46;;;;;;;3.03;0.80;;;7.40;99.90;;;;;;5033290;28;20349;-87
2022/11/22 06:04:12;;;;;;;3.17;0.97;;;7.40;99.90;;;;;;5037963;28;20022;-84
2022/11/22 06:06:37;;;;;;;3.25;0.90;;;7.40;99.90;;;;;;5009477;28;20128;-85
2022/11/22 06:09:03;;;;;;;2.53;0.90;;;7.50;99.90;;;;;;5016372;28;20524;-85
2022/11/22 06:11:29;;;;;;;2.42;0.90;;;7.50;99.90;;;;;;5027036;28;20039;-86
2022/11/22 06:14:02;;;;;;;4.07;1.10;;;7.50;99.90;;;;;;5010018;28;20065;-86
2022/11/22 06:16:28;;;;;;;2.40;0.95;;;7.60;99.90;;;;;;5046126;28;20051;-85
2022/11/22 06:18:54;;;;;;;3.15;1.13;;;7.60;99.90;;;;;;5014158;28;20112;-85
2022/11/22 06:21:24;;;;;;;2.40;1.00;;;7.60;99.90;;;;;;4992033;28;20393;-87
2022/11/22 06:23:53;;;;;;;2.63;0.80;;;7.70;99.90;;;;;;5001501;28;20040;-86
2022/11/22 06:26:21;;;;;;;2.90;1.20;;;7.70;99.90;;;;;;5011719;28;20083;-86
2022/11/22 06:28:47;;;;;;;3.20;0.98;;;7.80;99.90;;;;;;5008662;28;20162;-88
2022/11/22 06:31:16;;;;;;;3.97;1.17;;;7.80;99.90;;;;;;5008635;28;20108;-85
2022/11/22 06:33:42;;;;;;;2.35;0.98;;;7.80;99.90;;;;;;5058787;28;20021;-86
2022/11/22 06:36:11;;;;;;;1.40;1.00;;;7.80;99.90;;;;;;4996814;28;20292;-85
2022/11/22 06:38:38;;;;;;;3.22;0.80;;;7.80;99.90;;;;;;5036992;28;20638;-86
2022/11/22 06:41:08;;;;;;;4.35;1.10;;;7.90;99.90;;;;;;5032720;28;20572;-83
2022/11/22 06:43:36;;;;;;;2.83;1.10;;;7.80;99.90;;;;;;5048439;28;20029;-85
2022/11/22 06:46:03;;;;;;;3.50;1.10;;;7.90;99.90;;;;;;5015702;28;20680;-86
2022/11/22 06:48:31;;;;;;;3.60;1.13;;;7.90;99.90;;;;;;5048171;28;20108;-85
2022/11/22 06:51:04;;;;;;;2.20;0.90;;;7.90;99.90;;;;;;5052815;28;20443;-85
2022/11/22 06:53:32;;;;;;;1.60;0.80;;;8.00;99.90;;;;;;4983361;28;20350;-86
2022/11/22 06:56:05;;;;;;;3.20;1.20;;;8.00;99.90;;;;;;5038693;28;20299;-86
2022/11/22 06:58:30;;;;;;;1.83;1.00;;;8.00;99.90;;;;;;5007269;28;20029;-87
2022/11/22 07:01:00;;;;;;;2.67;1.10;;;8.00;99.90;;;;;;5025063;28;20389;-88
2022/11/22 07:03:26;;;;;;;2.88;1.17;;;8.10;99.90;;;;;;5009884;28;20027;-84
2022/11/22 07:05:53;;;;;;;2.25;1.00;;;8.00;99.90;;;;;;5025993;28;20428;-86
2022/11/22 07:08:18;;;;;;;3.23;1.20;;;8.10;99.90;;;;;;5012199;28;20036;-84
2022/11/22 07:10:44;;;;;;;2.08;1.08;;;8.10;99.90;;;;;;5010811;28;20231;-86
2022/11/22 07:13:10;;;;;;;1.80;0.90;;;8.20;99.90;;;;;;5013017;28;20597;-84
2022/11/22 07:15:35;;;;;;;1.45;0.80;;;8.20;99.90;;;;;;5019926;28;20018;-85
2022/11/22 07:18:01;;;;;;;3.08;1.00;;;8.20;99.90;;;;;;5001638;28;20107;-84
2022/11/22 07:20:27;;;;;;;3.10;1.20;;;8.20;99.90;;;;;;5020758;28;20033;-86
2022/11/22 07:22:52;;;;;;;4.23;0.90;;;8.20;99.90;;;;;;5004697;28;20069;-87
2022/11/22 07:25:18;;;;;;;3.08;0.90;;;8.20;99.90;;;;;;5018666;28;20230;-85
2022/11/22 07:27:43;;;;;;;2.17;0.87;;;8.20;99.90;;;;;;5043390;28;20574;-85
2022/11/22 07:30:10;;;;;;;1.73;0.98;;;8.30;99.90;;;;;;5013715;28;20571;-84
2022/11/22 07:32:35;;;;;;;4.03;1.10;;;8.30;99.90;;;;;;5026997;28;20071;-85
2022/11/22 07:35:01;;;;;;;2.50;1.10;;;8.30;99.90;;;;;;5016857;28;20494;-87
2022/11/22 07:37:26;;;;;;;3.77;1.20;;;8.30;99.90;;;;;;5035036;28;20016;-88
2022/11/22 07:39:53;;;;;;;3.78;1.20;;;8.40;99.90;;;;;;5035335;28;20025;-87
2022/11/22 07:42:18;;;;;;;1.60;1.00;;;8.30;99.90;;;;;;5007247;28;20017;-84
2022/11/22 07:44:44;;;;;;;3.28;1.10;;;8.40;99.90;;;;;;5028309;28;20051;-85
2022/11/22 07:47:09;;;;;;;3.77;1.13;;;8.40;99.90;;;;;;5019565;28;20235;-85
2022/11/22 07:49:35;;;;;;;2.03;1.00;;;8.40;99.90;;;;;;5035578;28;20084;-88
2022/11/22 07:52:01;;;;;;;2.60;1.10;;;8.40;99.90;;;;;;5031272;28;20029;-86
2022/11/22 07:54:26;;;;;;;2.20;1.03;;;8.40;99.90;;;;;;4985788;28;20033;-88
2022/11/22 07:56:52;;;;;;;3.88;1.08;;;8.50;99.90;;;;;;4998585;28;20501;-84
2022/11/22 07:59:18;;;;;;;6.97;2.03;;;8.50;99.90;;;;;;5028405;28;20215;-86
2022/11/22 08:01:43;;;;;;;2.28;1.08;;;8.50;99.90;;;;;;5013244;28;20030;-85
2022/11/22 08:04:09;;;;;;;3.57;1.40;;;8.50;99.90;;;;;;4996762;28;20032;-88
2022/11/22 08:06:34;;;;;;;3.78;1.20;;;8.50;99.90;;;;;;4999031;28;20374;-86
2022/11/22 08:09:00;;;;;;;5.77;1.40;;;8.50;99.90;;;;;;5033072;28;20116;-86
2022/11/22 08:11:25;;;;;;;3.53;1.30;;;8.60;99.90;;;;;;5006566;28;20094;-86
2022/11/22 08:13:51;;;;;;;2.60;1.20;;;8.60;99.90;;;;;;5033656;28;20063;-85
2022/11/22 08:16:18;;;;;;;3.00;1.30;;;8.60;99.90;;;;;;5006010;28;20049;-84
2022/11/22 08:18:48;;;;;;;2.75;1.35;;;8.60;99.90;;;;;;5031920;28;20043;-84
2022/11/22 08:21:16;;;;;;;2.33;1.05;;;8.60;99.90;;;;;;5044259;28;20652;-89
2022/11/22 08:23:42;;;;;;;2.45;1.30;;;8.60;99.90;;;;;;5033440;28;20144;-84
2022/11/22 08:26:13;;;;;;;2.77;1.33;;;8.70;99.90;;;;;;5020227;28;20021;-87
2022/11/22 08:28:40;;;;;;;3.20;1.00;;;8.70;99.90;;;;;;5036950;28;20028;-84
2022/11/22 08:31:14;;;;;;;3.67;1.13;;;8.70;99.90;;;;;;5047977;28;20055;-88
2022/11/22 08:33:40;;;;;;;3.85;1.15;;;8.70;99.90;;;;;;5005729;28;20336;-87
2022/11/22 08:36:06;;;;;;;2.97;1.10;;;8.70;99.90;;;;;;5036484;28;20507;-84
2022/11/22 08:38:34;;;;;;;2.00;1.17;;;8.80;99.90;;;;;;5034073;28;20232;-85
2022/11/22 08:41:00;;;;;;;2.88;1.35;;;8.80;99.90;;;;;;5007460;28;20021;-85
2022/11/22 08:43:26;;;;;;;3.42;1.25;;;8.80;99.90;;;;;;5013019;28;20048;-86
2022/11/22 08:45:56;;;;;;;2.97;1.10;;;8.80;99.90;;;;;;5018890;28;20481;-85
2022/11/22 08:48:23;;;;;;;3.28;1.20;;;8.80;99.90;;;;;;5049482;28;20049;-85
2022/11/22 08:50:56;;;;;;;1.60;1.00;;;8.90;99.90;;;;;;5057250;28;20021;-85
2022/11/22 08:53:23;;;;;;;7.13;1.75;;;8.80;99.90;;;;;;5039654;28;20021;-87
2022/11/22 08:55:49;;;;;;;4.97;1.13;;;8.90;99.90;;;;;;5035047;28;20041;-85
2022/11/22 08:58:15;;;;;;;3.30;1.30;;;8.90;99.90;;;;;;5014617;28;20017;-88
2022/11/22 09:00:40;;;;;;;2.88;1.20;;;8.90;99.90;;;;;;5020150;28;20529;-86
2022/11/22 09:03:06;;;;;;;2.93;1.00;;;8.90;99.90;;;;;;5062434;28;20021;-87
2022/11/22 09:05:32;;;;;;;1.88;0.80;;;8.90;99.90;;;;;;5017695;28;20061;-85
2022/11/22 09:07:58;;;;;;;2.60;1.00;;;9.00;99.90;;;;;;5038994;28;20053;-87
2022/11/22 09:10:24;;;;;;;2.92;0.93;;;9.00;99.90;;;;;;5017224;28;20026;-83
2022/11/22 09:12:50;;;;;;;2.90;1.17;;;9.00;99.90;;;;;;5012684;28;20078;-86
2022/11/22 09:15:16;;;;;;;2.27;1.00;;;9.00;99.90;;;;;;5021339;28;20052;-87
2022/11/22 09:17:42;;;;;;;2.53;1.20;;;9.00;99.90;;;;;;5030434;28;20028;-86
2022/11/22 09:20:10;;;;;;;3.45;1.27;;;9.00;99.90;;;;;;5043994;28;20031;-83
2022/11/22 09:22:36;;;;;;;2.47;1.10;;;9.10;99.90;;;;;;5042949;28;20072;-86
2022/11/22 09:25:09;;;;;;;3.53;1.30;;;9.10;99.90;;;;;;5029386;28;20108;-84
2022/11/22 09:27:34;;;;;;;2.00;0.90;;;9.10;99.90;;;;;;5018537;28;20147;-85
2022/11/22 09:30:01;;;;;;;3.47;1.30;;;9.10;99.90;;;;;;5037267;28;20026;-86
2022/11/22 09:32:29;;;;;;;4.00;1.00;;;9.20;99.90;;;;;;5029338;28;20078;-87
2022/11/22 09:34:55;;;;;;;3.13;1.10;;;9.20;99.90;;;;;;5050498;28;20070;-85
2022/11/22 09:37:21;;;;;;;2.80;1.10;;;9.20;99.90;;;;;;5016892;28;20033;-86
2022/11/22 09:39:47;;;;;;;3.33;1.00;;;9.20;99.90;;;;;;5018557;28;21351;-87
2022/11/22 09:42:32;;;;;;;3.00;1.10;;;9.30;99.90;;;;;;5040549;28;20025;-86
2022/11/22 09:45:30;;;;;;;3.33;1.30;;;9.30;99.90;;;;;;4994324;28;20052;-89
2022/11/22 09:48:08;;;;;;;2.05;1.00;;;9.30;99.90;;;;;;5043668;28;20569;-85
2022/11/22 09:50:52;;;;;;;2.50;0.98;;;9.30;99.90;;;;;;5009873;28;20280;-85
2022/11/22 09:53:30;;;;;;;1.60;0.80;;;9.30;99.90;;;;;;5044941;28;20067;-87
2022/11/22 09:55:59;;;;;;;2.17;0.73;;;9.30;99.90;;;;;;5023098;28;20041;-86
2022/11/22 09:58:36;;;;;;;2.97;1.20;;;9.30;99.90;;;;;;5016632;28;20521;-86
2022/11/22 10:01:07;;;;;;;2.55;1.10;;;9.30;99.90;;;;;;5020139;28;20032;-87
2022/11/22 10:03:47;;;;;;;1.80;1.00;;;9.30;99.90;;;;;;5041510;28;20048;-86
2022/11/22 10:06:28;;;;;;;2.15;1.10;;;9.40;99.90;;;;;;5049415;28;20032;-86
2022/11/22 10:09:08;;;;;;;2.20;0.90;;;9.40;99.90;;;;;;5035855;28;20018;-86
2022/11/22 10:11:47;;;;;;;2.42;1.40;;;9.40;99.90;;;;;;5031110;28;20005;-86
2022/11/22 10:14:27;;;;;;;1.98;0.90;;;9.40;99.90;;;;;;4996624;28;20025;-85
2022/11/22 10:17:06;;;;;;;1.75;0.90;;;9.40;99.90;;;;;;5039389;28;20052;-86
2022/11/22 10:19:43;;;;;;;3.15;1.17;;;9.40;99.90;;;;;;5032069;28;20057;-84
2022/11/22 10:22:13;;;;;;;2.97;1.43;;;9.40;99.90;;;;;;5033035;28;20024;-85
2022/11/22 10:24:39;;;;;;;3.13;0.90;;;9.40;99.90;;;;;;5025141;28;20314;-87
2022/11/22 10:27:12;;;;;;;1.48;0.82;;;9.40;99.90;;;;;;5035111;28;20021;-85
2022/11/22 10:29:49;;;;;;;1.85;0.82;;;9.50;99.90;;;;;;5004428;28;20032;-87
2022/11/22 10:32:41;;;;;;;2.10;0.80;;;9.50;99.90;;;;;;5022284;28;20032;-87
2022/11/22 10:35:31;;;;;;;1.40;0.80;;;9.50;99.90;;;;;;5031948;28;20445;-86
2022/11/22 10:38:42;;;;;;;1.10;0.70;;;9.60;99.90;;;;;;5030203;28;20052;-86
2022/11/22 10:41:18;;;;;;;1.80;0.80;;;9.60;99.90;;;;;;5012701;28;20032;-85
2022/11/22 10:43:57;;;;;;;1.10;0.77;;;9.70;99.90;;;;;;5020649;28;20473;-86
2022/11/22 10:46:47;;;;;;;1.33;0.70;;;9.70;99.90;;;;;;4999172;28;20497;-83
2022/11/22 10:49:13;;;;;;;2.00;0.73;;;9.80;99.90;;;;;;5038437;28;20037;-85
2022/11/22 10:51:47;;;;;;;1.05;0.70;;;9.80;99.90;;;;;;5047303;28;20025;-86
2022/11/22 10:54:20;;;;;;;1.98;0.80;;;9.90;99.90;;;;;;5019587;28;20037;-86
2022/11/22 10:57:14;;;;;;;1.43;0.60;;;9.90;99.90;;;;;;5011534;28;20477;-87
2022/11/22 10:59:50;;;;;;;2.13;0.77;;;9.90;99.90;;;;;;5017113;28;20033;-86
2022/11/22 11:02:34;;;;;;;1.02;0.80;;;10.00;99.90;;;;;;5006025;28;20056;-86
2022/11/22 11:05:06;;;;;;;0.95;0.60;;;9.90;99.90;;;;;;5019820;28;20021;-85
2022/11/22 11:07:32;;;;;;;2.25;0.75;;;10.00;99.90;;;;;;5059352;28;20480;-84
2022/11/22 11:10:13;;;;;;;1.87;0.60;;;10.00;99.90;;;;;;5006548;28;21187;-85
2022/11/22 11:12:47;;;;;;;1.42;0.70;;;10.00;99.90;;;;;;5019231;28;20237;-87
2022/11/22 11:15:21;;;;;;;1.73;0.80;;;10.00;99.90;;;;;;5007148;28;20173;-86
2022/11/22 11:17:56;;;;;;;1.52;0.75;;;10.00;99.90;;;;;;5011525;28;20048;-86
2022/11/22 11:20:26;;;;;;;1.95;0.70;;;10.10;99.90;;;;;;5026241;28;20028;-85
2022/11/22 11:22:52;;;;;;;0.67;0.60;;;10.10;99.90;;;;;;5029585;28;20088;-86
2022/11/22 11:25:33;;;;;;;2.10;0.60;;;10.10;99.90;;;;;;5023024;28;20310;-88
2022/11/22 11:28:06;;;;;;;1.45;0.60;;;10.10;99.90;;;;;;5025772;28;20025;-86
2022/11/22 11:30:47;;;;;;;0.80;0.70;;;10.20;99.90;;;;;;5000851;28;20521;-87
2022/11/22 11:33:40;;;;;;;1.00;0.50;;;10.20;99.90;;;;;;5023615;28;20036;-86
2022/11/22 11:36:08;;;;;;;1.17;0.80;;;10.30;99.90;;;;;;5031386;28;20045;-88
2022/11/22 11:38:36;;;;;;;1.95;0.75;;;10.30;99.90;;;;;;5035611;28;20192;-88
2022/11/22 11:41:16;;;;;;;1.33;0.70;;;10.30;99.90;;;;;;5005452;28;20044;-84
2022/11/22 11:43:42;;;;;;;1.93;0.60;;;10.30;99.90;;;;;;5049988;28;20241;-88
2022/11/22 11:46:20;;;;;;;1.70;0.80;;;10.40;99.90;;;;;;5002252;28;20513;-88
2022/11/22 11:48:50;;;;;;;1.17;0.68;;;10.30;99.90;;;;;;5048793;28;20417;-86
2022/11/22 11:51:31;;;;;;;2.00;0.70;;;10.40;99.90;;;;;;5049293;28;20138;-86
2022/11/22 11:54:08;;;;;;;1.70;0.63;;;10.40;99.90;;;;;;5031673;28;20116;-87
2022/11/22 11:56:49;;;;;;;1.07;0.80;;;10.30;99.90;;;;;;5046917;28;20574;-88
2022/11/22 11:59:39;;;;;;;1.10;0.70;;;10.30;99.90;;;;;;5019842;28;20047;-87
2022/11/22 12:02:13;;;;;;;0.98;0.50;;;10.40;99.90;;;;;;5012737;28;20409;-86
2022/11/22 12:05:05;;;;;;;0.80;0.60;;;10.40;99.90;;;;;;5020980;28;20025;-84
2022/11/22 12:07:33;;;;;;;0.80;0.65;;;10.50;99.90;;;;;;5031977;28;20705;-84
2022/11/22 12:10:00;;;;;;;0.97;0.70;;;10.50;99.90;;;;;;5044289;28;20045;-85
2022/11/22 12:12:44;;;;;;;1.20;0.70;;;10.60;99.90;;;;;;5037925;28;20029;-85
2022/11/22 12:15:44;;;;;;;0.90;0.70;;;10.60;99.90;;;;;;5011584;28;20121;-87
2022/11/22 12:18:29;;;;;;;1.10;0.75;;;10.60;99.90;;;;;;5013904;28;20036;-85
2022/11/22 12:21:05;;;;;;;1.27;0.85;;;10.60;99.90;;;;;;5019691;28;20028;-88
2022/11/22 12:23:55;;;;;;;0.90;0.60;;;10.70;99.90;;;;;;5030091;28;20033;-85
2022/11/22 12:26:20;;;;;;;1.40;0.98;;;10.70;99.90;;;;;;5036983;28;20217;-87
2022/11/22 12:28:47;;;;;;;2.25;1.05;;;10.70;99.90;;;;;;5027371;28;20075;-86
2022/11/22 12:31:16;;;;;;;0.90;0.50;;;10.70;99.90;;;;;;5016290;28;20033;-86
2022/11/22 12:34:06;;;;;;;0.75;0.60;;;10.70;99.90;;;;;;4985517;28;20026;-85
2022/11/22 12:36:49;;;;;;;1.27;0.70;;;10.70;99.90;;;;;;5027053;28;20037;-87
2022/11/22 12:39:21;;;;;;;1.52;0.60;;;10.80;99.90;;;;;;5029140;28;20020;-87
2022/11/22 12:41:49;;;;;;;1.00;0.60;;;10.80;99.90;;;;;;5028394;28;20037;-86
2022/11/22 12:44:19;;;;;;;0.50;0.50;;;10.80;99.90;;;;;;5034438;28;20052;-87
2022/11/22 12:47:08;;;;;;;0.45;0.45;;;10.80;99.90;;;;;;5031139;28;20025;-86
2022/11/22 12:49:43;;;;;;;0.65;0.60;;;10.80;99.90;;;;;;4991873;28;20081;-83
2022/11/22 12:52:35;;;;;;;1.45;0.55;;;10.80;99.90;;;;;;5037362;28;20028;-84
2022/11/22 12:55:19;;;;;;;1.40;0.60;;;10.80;99.90;;;;;;5027618;28;20292;-83
2022/11/22 12:57:50;;;;;;;1.30;0.70;;;10.80;99.90;;;;;;5041937;28;20375;-86
2022/11/22 13:00:18;;;;;;;0.75;0.70;;;10.80;99.90;;;;;;4999559;28;20021;-85
2022/11/22 13:02:53;;;;;;;0.90;0.55;;;10.80;99.90;;;;;;5017926;28;20124;-89
2022/11/22 13:05:32;;;;;;;0.95;0.60;;;10.80;99.90;;;;;;5019877;28;20044;-87
2022/11/22 13:08:13;;;;;;;1.27;0.70;;;10.80;99.90;;;;;;5030433;28;20036;-86
2022/11/22 13:11:14;;;;;;;1.30;0.60;;;10.80;99.90;;;;;;5028831;28;20568;-87
2022/11/22 13:13:47;;;;;;;0.50;0.50;;;10.90;99.90;;;;;;5028065;28;20026;-87
2022/11/22 13:16:13;;;;;;;0.70;0.50;;;10.90;99.90;;;;;;5024099;28;20737;-85
2022/11/22 13:18:50;;;;;;;1.27;0.60;;;10.90;99.90;;;;;;5031902;28;20021;-84
2022/11/22 13:21:25;;;;;;;1.33;0.80;;;10.90;99.90;;;;;;5008477;28;20146;-85